TCX64AZ LGPZ-EGKK
Flight info
| Callsign | TCX64AZ |
|---|---|
| Flight time | 3h 6m |
| Altitude | 34000 |
| Route | MALED UM127 KRK UL995 TIGRA DCT DOLON DCT PIKEL DCT UVOKA DCT PISIP DCT AMLON DCT RESIA DCT ARGAX DCT LOKTA DCT TEDGO DCT KRH DCT LIRSU DCT SPI DCT NIK L610 TEBRA |
| Aircraft | A321/M-SDE3FGHIRWY/LB1 |
Departure
| Time | 2026-04-25 12:02 |
|---|---|
| Airport | Aktion National Airport (LGPZ) |
Arrival
| Time | 2026-04-25 15:09 |
|---|---|
| Airport | London Gatwick Airport (EGKK) |
| Time | Latitude | Longitude | Altitude | Speed | Heading |
|---|---|---|---|---|---|
| 2026-04-25 11:31 | 38.93023 | 20.77241 | 19 ft | 0 kts | 338° |
| 2026-04-25 11:54 | 38.93022 | 20.77242 | 19 ft | 1 kts | 338° |
| 2026-04-25 11:55 | 38.92999 | 20.77253 | 19 ft | 4 kts | 338° |
| 2026-04-25 11:55 | 38.92974 | 20.77265 | 18 ft | 4 kts | 353° |
| 2026-04-25 11:55 | 38.92949 | 20.77263 | 20 ft | 4 kts | 26° |
| 2026-04-25 11:55 | 38.92932 | 20.77245 | 18 ft | 1 kts | 64° |
| 2026-04-25 11:56 | 38.92930 | 20.77239 | 18 ft | 0 kts | 64° |
| 2026-04-25 11:58 | 38.92941 | 20.77281 | 18 ft | 9 kts | 86° |
| 2026-04-25 11:58 | 38.92864 | 20.77349 | 17 ft | 19 kts | 154° |
| 2026-04-25 11:59 | 38.92862 | 20.77460 | 16 ft | 13 kts | 65° |
| 2026-04-25 11:59 | 38.92896 | 20.77569 | 16 ft | 13 kts | 69° |
| 2026-04-25 11:59 | 38.92927 | 20.77670 | 17 ft | 13 kts | 68° |
| 2026-04-25 12:00 | 38.92845 | 20.77869 | 21 ft | 12 kts | 70° |
| 2026-04-25 12:00 | 38.92873 | 20.77960 | 22 ft | 10 kts | 68° |
| 2026-04-25 12:00 | 38.92935 | 20.78107 | 19 ft | 9 kts | 16° |
| 2026-04-25 12:01 | 38.92986 | 20.78061 | 19 ft | 10 kts | 309° |
| 2026-04-25 12:01 | 38.93019 | 20.77979 | 19 ft | 11 kts | 269° |
| 2026-04-25 12:01 | 38.93008 | 20.77929 | 20 ft | 0 kts | 249° |
| 2026-04-25 12:01 | 38.92992 | 20.77876 | 19 ft | 31 kts | 248° |
| 2026-04-25 12:02 | 38.92502 | 20.76321 | 22 ft | 146 kts | 248° |
| 2026-04-25 12:02 | 38.92101 | 20.75021 | 416 ft | 156 kts | 247° |
| 2026-04-25 12:02 | 38.91784 | 20.73687 | 1079 ft | 157 kts | 267° |
| 2026-04-25 12:03 | 38.91869 | 20.72269 | 1466 ft | 166 kts | 279° |
| 2026-04-25 12:03 | 38.92027 | 20.70716 | 1613 ft | 184 kts | 279° |
| 2026-04-25 12:03 | 38.92196 | 20.69018 | 1749 ft | 200 kts | 278° |
| 2026-04-25 12:03 | 38.92379 | 20.67153 | 1876 ft | 220 kts | 279° |
| 2026-04-25 12:04 | 38.92582 | 20.65125 | 2012 ft | 244 kts | 278° |
| 2026-04-25 12:04 | 38.92800 | 20.62911 | 2480 ft | 255 kts | 279° |
| 2026-04-25 12:04 | 38.93259 | 20.60717 | 3049 ft | 256 kts | 300° |
| 2026-04-25 12:04 | 38.94349 | 20.58985 | 3668 ft | 257 kts | 322° |
| 2026-04-25 12:05 | 38.95749 | 20.57529 | 4249 ft | 262 kts | 324° |
| 2026-04-25 12:05 | 38.97193 | 20.56056 | 4869 ft | 267 kts | 324° |
| 2026-04-25 12:05 | 38.98659 | 20.54564 | 5513 ft | 270 kts | 324° |
| 2026-04-25 12:05 | 39.00145 | 20.53045 | 6137 ft | 274 kts | 324° |
| 2026-04-25 12:06 | 39.01644 | 20.51501 | 6735 ft | 278 kts | 324° |
| 2026-04-25 12:06 | 39.03159 | 20.49939 | 7360 ft | 280 kts | 324° |
| 2026-04-25 12:06 | 39.04685 | 20.48369 | 7995 ft | 282 kts | 324° |
| 2026-04-25 12:06 | 39.06224 | 20.46782 | 8634 ft | 285 kts | 323° |
| 2026-04-25 12:07 | 39.07778 | 20.45181 | 9231 ft | 288 kts | 323° |
| 2026-04-25 12:07 | 39.09350 | 20.43557 | 9840 ft | 291 kts | 323° |
| 2026-04-25 12:07 | 39.10926 | 20.41929 | 10232 ft | 301 kts | 323° |
| 2026-04-25 12:07 | 39.12594 | 20.40206 | 10353 ft | 320 kts | 323° |
| 2026-04-25 12:08 | 39.14377 | 20.38359 | 10476 ft | 337 kts | 323° |
| 2026-04-25 12:08 | 39.16249 | 20.36415 | 10602 ft | 354 kts | 323° |
| 2026-04-25 12:08 | 39.18196 | 20.34387 | 10857 ft | 364 kts | 323° |
| 2026-04-25 12:08 | 39.20181 | 20.32318 | 11301 ft | 369 kts | 323° |
| 2026-04-25 12:09 | 39.22183 | 20.30233 | 11819 ft | 371 kts | 323° |
| 2026-04-25 12:09 | 39.24204 | 20.28137 | 12326 ft | 374 kts | 323° |
| 2026-04-25 12:09 | 39.26241 | 20.26035 | 12827 ft | 376 kts | 323° |
| 2026-04-25 12:09 | 39.28294 | 20.23920 | 13329 ft | 379 kts | 323° |
| 2026-04-25 12:10 | 39.30358 | 20.21796 | 13806 ft | 381 kts | 324° |
| 2026-04-25 12:10 | 39.32439 | 20.19654 | 14230 ft | 384 kts | 324° |
| 2026-04-25 12:10 | 39.34531 | 20.17494 | 14633 ft | 386 kts | 323° |
| 2026-04-25 12:10 | 39.36633 | 20.15319 | 15034 ft | 389 kts | 323° |
| 2026-04-25 12:11 | 39.38618 | 20.13264 | 15405 ft | 391 kts | 324° |
| 2026-04-25 12:11 | 39.40751 | 20.11057 | 15812 ft | 393 kts | 324° |
| 2026-04-25 12:11 | 39.42747 | 20.08991 | 16182 ft | 395 kts | 323° |
| 2026-04-25 12:11 | 39.44768 | 20.06549 | 16564 ft | 401 kts | 314° |
| 2026-04-25 12:12 | 39.46500 | 20.03698 | 16916 ft | 405 kts | 309° |
| 2026-04-25 12:12 | 39.47593 | 20.01804 | 17144 ft | 406 kts | 309° |
| 2026-04-25 12:12 | 39.49857 | 19.97868 | 17602 ft | 409 kts | 309° |
| 2026-04-25 12:12 | 39.51537 | 19.94953 | 17940 ft | 411 kts | 309° |
| 2026-04-25 12:13 | 39.53251 | 19.91983 | 18275 ft | 413 kts | 309° |
| 2026-04-25 12:13 | 39.54973 | 19.88997 | 18581 ft | 416 kts | 309° |
| 2026-04-25 12:13 | 39.56707 | 19.85993 | 18892 ft | 417 kts | 309° |
| 2026-04-25 12:13 | 39.58452 | 19.82972 | 19205 ft | 419 kts | 309° |
| 2026-04-25 12:14 | 39.60204 | 19.79937 | 19517 ft | 421 kts | 309° |
| 2026-04-25 12:14 | 39.61962 | 19.76889 | 19829 ft | 423 kts | 309° |
| 2026-04-25 12:14 | 39.63725 | 19.73826 | 20133 ft | 425 kts | 309° |
| 2026-04-25 12:14 | 39.65496 | 19.70745 | 20412 ft | 427 kts | 309° |
| 2026-04-25 12:15 | 39.67272 | 19.67647 | 20736 ft | 428 kts | 309° |
| 2026-04-25 12:15 | 39.69051 | 19.64536 | 21053 ft | 430 kts | 309° |
| 2026-04-25 12:15 | 39.70839 | 19.61412 | 21370 ft | 432 kts | 309° |
| 2026-04-25 12:15 | 39.72638 | 19.58271 | 21683 ft | 434 kts | 309° |
| 2026-04-25 12:16 | 39.74442 | 19.55116 | 21995 ft | 436 kts | 309° |
| 2026-04-25 12:16 | 39.76252 | 19.51946 | 22308 ft | 438 kts | 309° |
| 2026-04-25 12:16 | 39.78069 | 19.48756 | 22623 ft | 440 kts | 309° |
| 2026-04-25 12:16 | 39.79895 | 19.45548 | 22910 ft | 442 kts | 309° |
| 2026-04-25 12:17 | 39.81728 | 19.42329 | 23208 ft | 444 kts | 309° |
| 2026-04-25 12:17 | 39.83568 | 19.39099 | 23513 ft | 446 kts | 309° |
| 2026-04-25 12:17 | 39.85417 | 19.35855 | 23775 ft | 447 kts | 309° |
| 2026-04-25 12:17 | 39.87273 | 19.32588 | 24016 ft | 449 kts | 309° |
| 2026-04-25 12:18 | 39.89130 | 19.29315 | 24261 ft | 451 kts | 309° |
| 2026-04-25 12:18 | 39.90995 | 19.26023 | 24511 ft | 452 kts | 309° |
| 2026-04-25 12:18 | 39.92863 | 19.22726 | 24765 ft | 454 kts | 309° |
| 2026-04-25 12:18 | 39.94742 | 19.19411 | 25002 ft | 455 kts | 309° |
| 2026-04-25 12:19 | 39.97869 | 19.13882 | 25420 ft | 457 kts | 309° |
| 2026-04-25 12:19 | 40.00395 | 19.09399 | 25745 ft | 459 kts | 309° |
| 2026-04-25 12:19 | 40.02282 | 19.06037 | 25988 ft | 460 kts | 309° |
| 2026-04-25 12:20 | 40.04150 | 19.02707 | 26218 ft | 462 kts | 309° |
| 2026-04-25 12:20 | 40.06050 | 18.99321 | 26451 ft | 463 kts | 309° |
| 2026-04-25 12:20 | 40.08019 | 18.95923 | 26673 ft | 464 kts | 310° |
| 2026-04-25 12:20 | 40.09988 | 18.92649 | 26878 ft | 465 kts | 311° |
| 2026-04-25 12:21 | 40.12013 | 18.89354 | 27072 ft | 466 kts | 311° |
| 2026-04-25 12:21 | 40.14050 | 18.86062 | 27266 ft | 467 kts | 311° |
| 2026-04-25 12:21 | 40.16047 | 18.82819 | 27451 ft | 468 kts | 311° |
| 2026-04-25 12:21 | 40.18078 | 18.79490 | 27626 ft | 469 kts | 311° |
| 2026-04-25 12:22 | 40.20133 | 18.76083 | 27774 ft | 471 kts | 311° |
| 2026-04-25 12:22 | 40.22155 | 18.72705 | 27934 ft | 472 kts | 310° |
| 2026-04-25 12:22 | 40.24146 | 18.69364 | 28087 ft | 472 kts | 310° |
| 2026-04-25 12:22 | 40.26163 | 18.65979 | 28339 ft | 471 kts | 310° |
| 2026-04-25 12:23 | 40.28177 | 18.62603 | 28573 ft | 470 kts | 310° |
| 2026-04-25 12:23 | 40.30218 | 18.59190 | 28796 ft | 469 kts | 311° |
| 2026-04-25 12:23 | 40.32204 | 18.55876 | 29014 ft | 468 kts | 311° |
| 2026-04-25 12:23 | 40.34216 | 18.52519 | 29212 ft | 468 kts | 311° |
| 2026-04-25 12:24 | 40.36224 | 18.49163 | 29413 ft | 468 kts | 311° |
| 2026-04-25 12:24 | 40.38227 | 18.45800 | 29616 ft | 467 kts | 311° |
| 2026-04-25 12:24 | 40.40222 | 18.42438 | 29816 ft | 467 kts | 310° |
| 2026-04-25 12:24 | 40.42216 | 18.39074 | 30007 ft | 466 kts | 310° |
| 2026-04-25 12:25 | 40.44202 | 18.35720 | 30194 ft | 466 kts | 310° |
| 2026-04-25 12:25 | 40.46193 | 18.32357 | 30355 ft | 466 kts | 310° |
| 2026-04-25 12:25 | 40.48181 | 18.28998 | 30518 ft | 465 kts | 310° |
| 2026-04-25 12:25 | 40.50165 | 18.25644 | 30676 ft | 465 kts | 310° |
| 2026-04-25 12:26 | 40.52155 | 18.22281 | 30834 ft | 465 kts | 310° |
| 2026-04-25 12:26 | 40.54140 | 18.18927 | 31001 ft | 465 kts | 310° |
| 2026-04-25 12:26 | 40.56124 | 18.15575 | 31182 ft | 464 kts | 310° |
| 2026-04-25 12:26 | 40.58096 | 18.12232 | 31340 ft | 464 kts | 310° |
| 2026-04-25 12:27 | 40.60076 | 18.08872 | 31500 ft | 464 kts | 310° |
| 2026-04-25 12:27 | 40.62049 | 18.05518 | 31654 ft | 464 kts | 310° |
| 2026-04-25 12:27 | 40.64023 | 18.02153 | 31819 ft | 464 kts | 310° |
| 2026-04-25 12:27 | 40.65994 | 17.98789 | 31981 ft | 464 kts | 310° |
| 2026-04-25 12:28 | 40.67967 | 17.95423 | 32137 ft | 464 kts | 310° |
| 2026-04-25 12:28 | 40.69937 | 17.92062 | 32295 ft | 464 kts | 310° |
| 2026-04-25 12:28 | 40.71912 | 17.88685 | 32449 ft | 464 kts | 310° |
| 2026-04-25 12:28 | 40.73877 | 17.85316 | 32622 ft | 464 kts | 310° |
| 2026-04-25 12:29 | 40.75842 | 17.81945 | 32784 ft | 464 kts | 310° |
| 2026-04-25 12:29 | 40.77808 | 17.78563 | 32951 ft | 464 kts | 310° |
| 2026-04-25 12:29 | 40.79746 | 17.75230 | 33109 ft | 464 kts | 310° |
| 2026-04-25 12:29 | 40.81736 | 17.71812 | 33256 ft | 464 kts | 310° |
| 2026-04-25 12:30 | 40.83672 | 17.68483 | 33404 ft | 463 kts | 310° |
| 2026-04-25 12:30 | 40.85627 | 17.65116 | 33560 ft | 463 kts | 310° |
| 2026-04-25 12:30 | 40.87587 | 17.61739 | 33706 ft | 463 kts | 310° |
| 2026-04-25 12:30 | 40.89565 | 17.58380 | 33856 ft | 463 kts | 312° |
| 2026-04-25 12:31 | 40.91630 | 17.55128 | 34025 ft | 461 kts | 314° |
| 2026-04-25 12:31 | 40.95939 | 17.48871 | 34073 ft | 458 kts | 316° |
| 2026-04-25 12:32 | 41.00286 | 17.42710 | 34076 ft | 458 kts | 315° |
| 2026-04-25 12:32 | 41.03858 | 17.37516 | 34070 ft | 459 kts | 314° |
| 2026-04-25 12:33 | 41.08110 | 17.31201 | 34076 ft | 459 kts | 314° |
| 2026-04-25 12:33 | 41.12340 | 17.24881 | 34076 ft | 459 kts | 314° |
| 2026-04-25 12:34 | 41.16587 | 17.18552 | 34080 ft | 459 kts | 314° |
| 2026-04-25 12:34 | 41.20839 | 17.12229 | 34083 ft | 459 kts | 314° |
| 2026-04-25 12:35 | 41.25071 | 17.05865 | 34085 ft | 459 kts | 314° |
| 2026-04-25 12:35 | 41.29285 | 16.99490 | 34086 ft | 459 kts | 313° |
| 2026-04-25 12:36 | 41.33512 | 16.93100 | 34087 ft | 460 kts | 313° |
| 2026-04-25 12:36 | 41.37739 | 16.86715 | 34091 ft | 460 kts | 313° |
| 2026-04-25 12:37 | 41.41963 | 16.80328 | 34091 ft | 459 kts | 313° |
| 2026-04-25 12:37 | 41.46171 | 16.73989 | 34092 ft | 459 kts | 313° |
| 2026-04-25 12:38 | 41.50400 | 16.67610 | 34074 ft | 459 kts | 313° |
| 2026-04-25 12:38 | 41.54777 | 16.61432 | 34079 ft | 458 kts | 319° |
| 2026-04-25 12:39 | 41.59432 | 16.55627 | 34080 ft | 458 kts | 319° |
| 2026-04-25 12:39 | 41.64074 | 16.49794 | 34082 ft | 458 kts | 318° |
| 2026-04-25 12:40 | 41.68708 | 16.43935 | 34085 ft | 458 kts | 318° |
| 2026-04-25 12:40 | 41.73350 | 16.38076 | 34086 ft | 459 kts | 318° |
| 2026-04-25 12:41 | 41.77983 | 16.32210 | 34077 ft | 458 kts | 318° |
| 2026-04-25 12:41 | 41.82617 | 16.26325 | 34075 ft | 459 kts | 318° |
| 2026-04-25 12:42 | 41.87256 | 16.20441 | 34073 ft | 459 kts | 318° |
| 2026-04-25 12:42 | 41.91891 | 16.14552 | 34086 ft | 459 kts | 318° |
| 2026-04-25 12:43 | 41.96484 | 16.08691 | 34086 ft | 458 kts | 317° |
| 2026-04-25 12:43 | 42.03371 | 15.99879 | 34080 ft | 458 kts | 317° |
| 2026-04-25 12:44 | 42.07987 | 15.93958 | 34077 ft | 458 kts | 317° |
| 2026-04-25 12:45 | 42.14897 | 15.85069 | 34092 ft | 457 kts | 317° |
| 2026-04-25 12:45 | 42.21783 | 15.76179 | 34082 ft | 457 kts | 317° |
| 2026-04-25 12:46 | 42.26367 | 15.70253 | 34079 ft | 456 kts | 317° |
| 2026-04-25 12:46 | 42.30953 | 15.64317 | 34072 ft | 456 kts | 317° |
| 2026-04-25 12:47 | 42.35524 | 15.58383 | 34067 ft | 456 kts | 317° |
| 2026-04-25 12:47 | 42.40068 | 15.52476 | 34073 ft | 456 kts | 316° |
| 2026-04-25 12:48 | 42.44627 | 15.46521 | 34077 ft | 455 kts | 316° |
| 2026-04-25 12:48 | 42.49181 | 15.40558 | 34078 ft | 455 kts | 316° |
| 2026-04-25 12:49 | 42.53737 | 15.34583 | 34071 ft | 455 kts | 316° |
| 2026-04-25 12:49 | 42.58288 | 15.28607 | 34074 ft | 455 kts | 316° |
| 2026-04-25 12:50 | 42.62829 | 15.22621 | 34069 ft | 455 kts | 316° |
| 2026-04-25 12:50 | 42.67378 | 15.16642 | 34073 ft | 455 kts | 316° |
| 2026-04-25 12:51 | 42.71921 | 15.10651 | 34076 ft | 455 kts | 316° |
| 2026-04-25 12:51 | 42.76426 | 15.04692 | 34080 ft | 454 kts | 316° |
| 2026-04-25 12:52 | 42.80947 | 14.98682 | 34077 ft | 454 kts | 315° |
| 2026-04-25 12:52 | 42.85467 | 14.92661 | 34079 ft | 454 kts | 315° |
| 2026-04-25 12:53 | 42.89987 | 14.86644 | 34078 ft | 454 kts | 315° |
| 2026-04-25 12:53 | 42.94501 | 14.80627 | 34082 ft | 453 kts | 315° |
| 2026-04-25 12:54 | 42.99000 | 14.74597 | 34080 ft | 453 kts | 315° |
| 2026-04-25 12:54 | 43.03497 | 14.68564 | 34080 ft | 453 kts | 315° |
| 2026-04-25 12:55 | 43.07230 | 14.63543 | 34080 ft | 453 kts | 315° |
| 2026-04-25 12:55 | 43.12480 | 14.56467 | 34083 ft | 453 kts | 315° |
| 2026-04-25 12:56 | 43.16960 | 14.50419 | 34085 ft | 452 kts | 315° |
| 2026-04-25 12:56 | 43.21436 | 14.44367 | 34080 ft | 452 kts | 315° |
| 2026-04-25 12:57 | 43.25881 | 14.38348 | 34081 ft | 451 kts | 315° |
| 2026-04-25 12:57 | 43.30342 | 14.32284 | 34076 ft | 451 kts | 315° |
| 2026-04-25 12:58 | 43.34800 | 14.26207 | 34079 ft | 451 kts | 314° |
| 2026-04-25 12:58 | 43.39214 | 14.20180 | 34072 ft | 450 kts | 314° |
| 2026-04-25 12:59 | 43.43690 | 14.14049 | 34074 ft | 451 kts | 314° |
| 2026-04-25 12:59 | 43.48132 | 14.07956 | 34075 ft | 451 kts | 314° |
| 2026-04-25 13:00 | 43.51099 | 14.03878 | 34074 ft | 451 kts | 314° |
| 2026-04-25 13:00 | 43.57017 | 13.95739 | 34078 ft | 451 kts | 314° |
| 2026-04-25 13:01 | 43.61447 | 13.89621 | 34078 ft | 450 kts | 314° |
| 2026-04-25 13:01 | 43.65869 | 13.83503 | 34075 ft | 450 kts | 314° |
| 2026-04-25 13:02 | 43.70288 | 13.77388 | 34074 ft | 449 kts | 314° |
| 2026-04-25 13:02 | 43.74669 | 13.71300 | 34074 ft | 449 kts | 313° |
| 2026-04-25 13:03 | 43.79077 | 13.65169 | 34073 ft | 449 kts | 314° |
| 2026-04-25 13:03 | 43.83473 | 13.59032 | 34077 ft | 448 kts | 313° |
| 2026-04-25 13:04 | 43.87859 | 13.52891 | 34075 ft | 448 kts | 313° |
| 2026-04-25 13:04 | 43.92242 | 13.46752 | 34070 ft | 448 kts | 313° |
| 2026-04-25 13:05 | 43.96613 | 13.40608 | 34069 ft | 447 kts | 313° |
| 2026-04-25 13:05 | 44.00982 | 13.34459 | 34065 ft | 447 kts | 313° |
| 2026-04-25 13:06 | 44.05343 | 13.28303 | 34059 ft | 447 kts | 313° |
| 2026-04-25 13:06 | 44.09702 | 13.22134 | 34062 ft | 447 kts | 313° |
| 2026-04-25 13:07 | 44.14061 | 13.15962 | 34062 ft | 447 kts | 313° |
| 2026-04-25 13:07 | 44.18413 | 13.09781 | 34055 ft | 447 kts | 313° |
| 2026-04-25 13:08 | 44.22756 | 13.03595 | 34062 ft | 446 kts | 313° |
| 2026-04-25 13:08 | 44.27094 | 12.97399 | 34077 ft | 446 kts | 312° |
| 2026-04-25 13:09 | 44.31378 | 12.91263 | 34077 ft | 445 kts | 312° |
| 2026-04-25 13:09 | 44.35741 | 12.85119 | 34073 ft | 445 kts | 314° |
| 2026-04-25 13:10 | 44.40340 | 12.79315 | 34076 ft | 445 kts | 317° |
| 2026-04-25 13:10 | 44.45015 | 12.73638 | 34076 ft | 445 kts | 317° |
| 2026-04-25 13:11 | 44.49639 | 12.67889 | 34084 ft | 444 kts | 316° |
| 2026-04-25 13:11 | 44.54206 | 12.62077 | 34079 ft | 443 kts | 315° |
| 2026-04-25 13:12 | 44.58759 | 12.56261 | 34078 ft | 443 kts | 315° |
| 2026-04-25 13:12 | 44.61808 | 12.52380 | 34074 ft | 442 kts | 316° |
| 2026-04-25 13:13 | 44.67877 | 12.44663 | 34072 ft | 442 kts | 316° |
| 2026-04-25 13:13 | 44.72433 | 12.38860 | 34082 ft | 442 kts | 315° |
| 2026-04-25 13:14 | 44.76975 | 12.33041 | 34074 ft | 441 kts | 315° |
| 2026-04-25 13:14 | 44.81502 | 12.27213 | 34069 ft | 441 kts | 315° |
| 2026-04-25 13:15 | 44.86027 | 12.21392 | 34066 ft | 440 kts | 315° |
| 2026-04-25 13:15 | 44.90553 | 12.15566 | 34063 ft | 440 kts | 315° |
| 2026-04-25 13:16 | 44.95071 | 12.09737 | 34066 ft | 440 kts | 315° |
| 2026-04-25 13:16 | 44.99586 | 12.03904 | 34064 ft | 439 kts | 315° |
| 2026-04-25 13:17 | 45.04088 | 11.98060 | 34056 ft | 439 kts | 315° |
| 2026-04-25 13:17 | 45.08584 | 11.92213 | 34057 ft | 439 kts | 314° |
| 2026-04-25 13:18 | 45.13071 | 11.86358 | 34051 ft | 438 kts | 314° |
| 2026-04-25 13:18 | 45.17556 | 11.80500 | 34061 ft | 438 kts | 314° |
| 2026-04-25 13:19 | 45.21273 | 11.75632 | 34056 ft | 437 kts | 314° |
| 2026-04-25 13:19 | 45.24984 | 11.70774 | 34053 ft | 437 kts | 314° |
| 2026-04-25 13:20 | 45.30200 | 11.63929 | 34049 ft | 436 kts | 314° |
| 2026-04-25 13:20 | 45.34656 | 11.58068 | 34048 ft | 436 kts | 314° |
| 2026-04-25 13:21 | 45.39090 | 11.52204 | 34056 ft | 435 kts | 313° |
| 2026-04-25 13:21 | 45.43518 | 11.46338 | 34053 ft | 434 kts | 313° |
| 2026-04-25 13:22 | 45.47940 | 11.40481 | 34052 ft | 434 kts | 313° |
| 2026-04-25 13:23 | 45.54549 | 11.31677 | 34054 ft | 433 kts | 313° |
| 2026-04-25 13:23 | 45.58954 | 11.25804 | 34053 ft | 433 kts | 313° |
| 2026-04-25 13:24 | 45.63355 | 11.19926 | 34059 ft | 433 kts | 313° |
| 2026-04-25 13:24 | 45.67750 | 11.14037 | 34056 ft | 433 kts | 313° |
| 2026-04-25 13:25 | 45.72142 | 11.08136 | 34058 ft | 433 kts | 313° |
| 2026-04-25 13:25 | 45.76530 | 11.02231 | 34056 ft | 432 kts | 313° |
| 2026-04-25 13:26 | 45.80905 | 10.96335 | 34052 ft | 431 kts | 313° |
| 2026-04-25 13:26 | 45.85265 | 10.90438 | 34076 ft | 431 kts | 313° |
| 2026-04-25 13:27 | 45.89613 | 10.84542 | 34066 ft | 430 kts | 312° |
| 2026-04-25 13:27 | 45.93940 | 10.78657 | 34056 ft | 427 kts | 312° |
| 2026-04-25 13:28 | 45.98269 | 10.72764 | 34072 ft | 429 kts | 312° |
| 2026-04-25 13:28 | 46.02593 | 10.66869 | 34071 ft | 428 kts | 312° |
| 2026-04-25 13:29 | 46.06910 | 10.60970 | 34068 ft | 427 kts | 312° |
| 2026-04-25 13:29 | 46.11178 | 10.55128 | 34070 ft | 427 kts | 311° |
| 2026-04-25 13:30 | 46.17636 | 10.46241 | 34071 ft | 428 kts | 312° |
| 2026-04-25 13:31 | 46.24092 | 10.37346 | 34087 ft | 428 kts | 311° |
| 2026-04-25 13:31 | 46.28364 | 10.31438 | 34091 ft | 428 kts | 311° |
| 2026-04-25 13:32 | 46.32665 | 10.25472 | 34089 ft | 428 kts | 311° |
| 2026-04-25 13:32 | 46.36964 | 10.19518 | 34092 ft | 428 kts | 311° |
| 2026-04-25 13:33 | 46.41262 | 10.13546 | 34118 ft | 428 kts | 311° |
| 2026-04-25 13:33 | 46.45575 | 10.07530 | 34106 ft | 427 kts | 311° |
| 2026-04-25 13:34 | 46.49839 | 10.01632 | 34114 ft | 428 kts | 313° |
| 2026-04-25 13:34 | 46.54342 | 9.95835 | 34137 ft | 430 kts | 314° |
| 2026-04-25 13:35 | 46.58857 | 9.90137 | 34112 ft | 430 kts | 314° |
| 2026-04-25 13:35 | 46.63356 | 9.84368 | 34108 ft | 431 kts | 314° |
| 2026-04-25 13:36 | 46.67805 | 9.78588 | 34109 ft | 432 kts | 314° |
| 2026-04-25 13:36 | 46.72268 | 9.72768 | 34119 ft | 430 kts | 315° |
| 2026-04-25 13:37 | 46.76727 | 9.66955 | 34129 ft | 429 kts | 315° |
| 2026-04-25 13:37 | 46.81178 | 9.61141 | 34117 ft | 430 kts | 316° |
| 2026-04-25 13:38 | 46.85644 | 9.55312 | 34108 ft | 431 kts | 316° |
| 2026-04-25 13:38 | 46.90111 | 9.49468 | 34098 ft | 431 kts | 316° |
| 2026-04-25 13:39 | 46.94570 | 9.43595 | 34092 ft | 431 kts | 316° |
| 2026-04-25 13:39 | 46.99006 | 9.37714 | 34125 ft | 429 kts | 317° |
| 2026-04-25 13:40 | 47.03686 | 9.32333 | 34120 ft | 429 kts | 330° |
| 2026-04-25 13:40 | 47.09308 | 9.29461 | 34108 ft | 432 kts | 349° |
| 2026-04-25 13:41 | 47.15311 | 9.28758 | 34100 ft | 433 kts | 354° |
| 2026-04-25 13:41 | 47.21321 | 9.28155 | 34105 ft | 433 kts | 354° |
| 2026-04-25 13:42 | 47.27337 | 9.27532 | 34105 ft | 433 kts | 354° |
| 2026-04-25 13:42 | 47.33353 | 9.26909 | 34106 ft | 433 kts | 355° |
| 2026-04-25 13:43 | 47.39369 | 9.26302 | 34103 ft | 433 kts | 355° |
| 2026-04-25 13:43 | 47.45378 | 9.25699 | 34105 ft | 432 kts | 355° |
| 2026-04-25 13:44 | 47.51379 | 9.25082 | 34106 ft | 432 kts | 355° |
| 2026-04-25 13:44 | 47.57371 | 9.24464 | 34105 ft | 431 kts | 355° |
| 2026-04-25 13:45 | 47.63349 | 9.23841 | 34101 ft | 430 kts | 355° |
| 2026-04-25 13:45 | 47.69296 | 9.23225 | 34106 ft | 429 kts | 355° |
| 2026-04-25 13:46 | 47.75259 | 9.22613 | 34105 ft | 428 kts | 355° |
| 2026-04-25 13:46 | 47.81191 | 9.22000 | 34099 ft | 428 kts | 355° |
| 2026-04-25 13:47 | 47.87129 | 9.21386 | 34095 ft | 428 kts | 355° |
| 2026-04-25 13:47 | 47.93064 | 9.20771 | 34090 ft | 428 kts | 355° |
| 2026-04-25 13:48 | 47.99004 | 9.20145 | 34089 ft | 428 kts | 355° |
| 2026-04-25 13:48 | 48.04951 | 9.19505 | 34088 ft | 428 kts | 354° |
| 2026-04-25 13:49 | 48.10897 | 9.18879 | 34086 ft | 429 kts | 354° |
| 2026-04-25 13:49 | 48.16861 | 9.18399 | 34085 ft | 430 kts | 1° |
| 2026-04-25 13:50 | 48.22836 | 9.19321 | 34087 ft | 432 kts | 5° |
| 2026-04-25 13:50 | 48.28409 | 9.20265 | 34097 ft | 432 kts | 5° |
| 2026-04-25 13:51 | 48.34350 | 9.21285 | 34087 ft | 433 kts | 4° |
| 2026-04-25 13:51 | 48.40343 | 9.22280 | 34090 ft | 433 kts | 4° |
| 2026-04-25 13:52 | 48.46341 | 9.23281 | 34095 ft | 434 kts | 4° |
| 2026-04-25 13:52 | 48.52348 | 9.24297 | 34086 ft | 434 kts | 4° |
| 2026-04-25 13:53 | 48.58331 | 9.24244 | 34083 ft | 429 kts | 347° |
| 2026-04-25 13:53 | 48.61184 | 9.22969 | 34080 ft | 427 kts | 336° |
| 2026-04-25 13:53 | 48.63816 | 9.20900 | 34078 ft | 426 kts | 326° |
| 2026-04-25 13:53 | 48.66134 | 9.18106 | 34076 ft | 426 kts | 315° |
| 2026-04-25 13:54 | 48.68099 | 9.14765 | 34065 ft | 426 kts | 310° |
| 2026-04-25 13:54 | 48.71904 | 9.07948 | 34070 ft | 426 kts | 310° |
| 2026-04-25 13:55 | 48.75733 | 9.01097 | 34097 ft | 426 kts | 310° |
| 2026-04-25 13:55 | 48.79558 | 8.94227 | 34105 ft | 425 kts | 310° |
| 2026-04-25 13:56 | 48.83366 | 8.87354 | 34108 ft | 425 kts | 310° |
| 2026-04-25 13:56 | 48.87166 | 8.80478 | 34114 ft | 424 kts | 310° |
| 2026-04-25 13:57 | 48.90955 | 8.73597 | 34109 ft | 424 kts | 310° |
| 2026-04-25 13:57 | 48.94743 | 8.66711 | 34115 ft | 424 kts | 310° |
| 2026-04-25 13:58 | 48.98531 | 8.59819 | 34126 ft | 424 kts | 310° |
| 2026-04-25 13:58 | 49.02370 | 8.52998 | 34129 ft | 424 kts | 311° |
| 2026-04-25 13:59 | 49.06301 | 8.46296 | 34134 ft | 423 kts | 312° |
| 2026-04-25 13:59 | 49.10227 | 8.39609 | 34134 ft | 423 kts | 311° |
| 2026-04-25 14:00 | 49.12812 | 8.35163 | 34134 ft | 423 kts | 311° |
| 2026-04-25 14:00 | 49.17365 | 8.27280 | 34130 ft | 423 kts | 311° |
| 2026-04-25 14:01 | 49.21871 | 8.19429 | 34124 ft | 422 kts | 311° |
| 2026-04-25 14:01 | 49.25747 | 8.12679 | 34139 ft | 422 kts | 311° |
| 2026-04-25 14:02 | 49.28991 | 8.07018 | 34135 ft | 421 kts | 311° |
| 2026-04-25 14:02 | 49.32851 | 8.00263 | 34119 ft | 421 kts | 311° |
| 2026-04-25 14:03 | 49.36716 | 7.93482 | 34114 ft | 422 kts | 311° |
| 2026-04-25 14:03 | 49.40550 | 7.86736 | 34112 ft | 422 kts | 311° |
| 2026-04-25 14:04 | 49.44403 | 7.79939 | 34111 ft | 422 kts | 311° |
| 2026-04-25 14:04 | 49.48261 | 7.73127 | 34109 ft | 422 kts | 311° |
| 2026-04-25 14:05 | 49.52108 | 7.66294 | 34117 ft | 422 kts | 311° |
| 2026-04-25 14:05 | 49.55946 | 7.59469 | 34120 ft | 421 kts | 310° |
| 2026-04-25 14:06 | 49.59783 | 7.52630 | 34125 ft | 421 kts | 310° |
| 2026-04-25 14:06 | 49.63610 | 7.45797 | 34137 ft | 421 kts | 310° |
| 2026-04-25 14:07 | 49.67425 | 7.38944 | 34135 ft | 421 kts | 310° |
| 2026-04-25 14:07 | 49.71240 | 7.32087 | 34134 ft | 420 kts | 310° |
| 2026-04-25 14:08 | 49.75048 | 7.25240 | 34145 ft | 420 kts | 310° |
| 2026-04-25 14:08 | 49.78845 | 7.18379 | 34134 ft | 419 kts | 310° |
| 2026-04-25 14:09 | 49.82631 | 7.11522 | 34137 ft | 419 kts | 310° |
| 2026-04-25 14:09 | 49.86418 | 7.04650 | 34137 ft | 419 kts | 310° |
| 2026-04-25 14:10 | 49.90167 | 6.97829 | 34135 ft | 418 kts | 310° |
| 2026-04-25 14:10 | 49.93932 | 6.90947 | 34118 ft | 418 kts | 310° |
| 2026-04-25 14:11 | 49.97692 | 6.84058 | 34113 ft | 418 kts | 310° |
| 2026-04-25 14:11 | 50.01450 | 6.77164 | 34123 ft | 418 kts | 310° |
| 2026-04-25 14:12 | 50.05200 | 6.70265 | 34122 ft | 417 kts | 309° |
| 2026-04-25 14:12 | 50.08944 | 6.63373 | 34120 ft | 417 kts | 309° |
| 2026-04-25 14:13 | 50.12684 | 6.56461 | 34116 ft | 417 kts | 309° |
| 2026-04-25 14:13 | 50.16411 | 6.49527 | 34130 ft | 417 kts | 309° |
| 2026-04-25 14:14 | 50.19891 | 6.42313 | 34128 ft | 417 kts | 302° |
| 2026-04-25 14:14 | 50.22962 | 6.34645 | 34139 ft | 416 kts | 302° |
| 2026-04-25 14:15 | 50.26021 | 6.26961 | 34153 ft | 416 kts | 302° |
| 2026-04-25 14:15 | 50.29078 | 6.19284 | 34159 ft | 416 kts | 302° |
| 2026-04-25 14:16 | 50.32111 | 6.11654 | 34160 ft | 415 kts | 302° |
| 2026-04-25 14:16 | 50.35152 | 6.03965 | 34169 ft | 415 kts | 301° |
| 2026-04-25 14:17 | 50.38187 | 5.96269 | 34165 ft | 415 kts | 301° |
| 2026-04-25 14:17 | 50.41216 | 5.88578 | 34179 ft | 414 kts | 301° |
| 2026-04-25 14:18 | 50.44241 | 5.80877 | 34179 ft | 414 kts | 301° |
| 2026-04-25 14:18 | 50.47256 | 5.73175 | 34185 ft | 414 kts | 301° |
| 2026-04-25 14:19 | 50.50258 | 5.65464 | 34184 ft | 414 kts | 301° |
| 2026-04-25 14:19 | 50.53379 | 5.57858 | 34196 ft | 414 kts | 304° |
| 2026-04-25 14:20 | 50.56804 | 5.50567 | 34189 ft | 415 kts | 306° |
| 2026-04-25 14:20 | 50.60277 | 5.43318 | 34194 ft | 415 kts | 306° |
| 2026-04-25 14:21 | 50.63684 | 5.35993 | 34206 ft | 415 kts | 305° |
| 2026-04-25 14:21 | 50.67051 | 5.28616 | 34200 ft | 415 kts | 304° |
| 2026-04-25 14:22 | 50.70418 | 5.21235 | 34202 ft | 414 kts | 304° |
| 2026-04-25 14:22 | 50.73781 | 5.13850 | 34195 ft | 414 kts | 304° |
| 2026-04-25 14:23 | 50.77148 | 5.06461 | 34206 ft | 415 kts | 304° |
| 2026-04-25 14:23 | 50.80510 | 4.99058 | 34207 ft | 415 kts | 304° |
| 2026-04-25 14:24 | 50.83875 | 4.91629 | 34202 ft | 415 kts | 304° |
| 2026-04-25 14:24 | 50.87231 | 4.84188 | 34207 ft | 415 kts | 304° |
| 2026-04-25 14:25 | 50.90575 | 4.76740 | 34205 ft | 415 kts | 304° |
| 2026-04-25 14:25 | 50.93923 | 4.69278 | 34201 ft | 415 kts | 303° |
| 2026-04-25 14:26 | 50.97259 | 4.61813 | 34182 ft | 415 kts | 303° |
| 2026-04-25 14:26 | 51.00601 | 4.54305 | 34179 ft | 417 kts | 303° |
| 2026-04-25 14:27 | 51.03948 | 4.46780 | 34182 ft | 417 kts | 303° |
| 2026-04-25 14:27 | 51.07275 | 4.39287 | 34185 ft | 418 kts | 303° |
| 2026-04-25 14:28 | 51.10623 | 4.31728 | 34189 ft | 418 kts | 303° |
| 2026-04-25 14:28 | 51.13946 | 4.24192 | 34193 ft | 418 kts | 303° |
| 2026-04-25 14:29 | 51.16689 | 4.16094 | 34195 ft | 415 kts | 288° |
| 2026-04-25 14:29 | 51.18023 | 4.07243 | 34196 ft | 415 kts | 282° |
| 2026-04-25 14:30 | 51.19236 | 3.98266 | 34190 ft | 414 kts | 282° |
| 2026-04-25 14:30 | 51.21064 | 3.84797 | 34190 ft | 414 kts | 282° |
| 2026-04-25 14:31 | 51.22266 | 3.75812 | 34184 ft | 414 kts | 281° |
| 2026-04-25 14:31 | 51.23467 | 3.66806 | 34186 ft | 415 kts | 281° |
| 2026-04-25 14:32 | 51.24680 | 3.57794 | 34195 ft | 415 kts | 282° |
| 2026-04-25 14:32 | 51.25896 | 3.48774 | 34196 ft | 416 kts | 281° |
| 2026-04-25 14:33 | 51.27093 | 3.39739 | 34205 ft | 416 kts | 281° |
| 2026-04-25 14:33 | 51.28267 | 3.30697 | 34203 ft | 416 kts | 281° |
| 2026-04-25 14:34 | 51.29425 | 3.21640 | 34218 ft | 416 kts | 281° |
| 2026-04-25 14:34 | 51.30574 | 3.12563 | 34214 ft | 417 kts | 281° |
| 2026-04-25 14:35 | 51.31714 | 3.03542 | 34060 ft | 418 kts | 281° |
| 2026-04-25 14:35 | 51.32290 | 2.98994 | 33784 ft | 418 kts | 281° |
| 2026-04-25 14:35 | 51.32866 | 2.94442 | 33515 ft | 418 kts | 281° |
| 2026-04-25 14:36 | 51.33439 | 2.89879 | 33245 ft | 419 kts | 281° |
| 2026-04-25 14:36 | 51.34007 | 2.85311 | 32987 ft | 419 kts | 281° |
| 2026-04-25 14:36 | 51.34573 | 2.80730 | 32719 ft | 421 kts | 281° |
| 2026-04-25 14:36 | 51.35140 | 2.76132 | 32457 ft | 421 kts | 281° |
| 2026-04-25 14:37 | 51.35710 | 2.71531 | 32197 ft | 422 kts | 281° |
| 2026-04-25 14:37 | 51.36281 | 2.66925 | 31410 ft | 424 kts | 281° |
| 2026-04-25 14:37 | 51.36853 | 2.62279 | 30455 ft | 428 kts | 281° |
| 2026-04-25 14:37 | 51.37429 | 2.57587 | 29362 ft | 431 kts | 281° |
| 2026-04-25 14:38 | 51.38005 | 2.52870 | 28396 ft | 432 kts | 281° |
| 2026-04-25 14:38 | 51.38573 | 2.48198 | 27855 ft | 424 kts | 281° |
| 2026-04-25 14:38 | 51.39134 | 2.43589 | 27221 ft | 419 kts | 281° |
| 2026-04-25 14:38 | 51.39686 | 2.39038 | 26609 ft | 414 kts | 281° |
| 2026-04-25 14:39 | 51.40230 | 2.34538 | 25996 ft | 409 kts | 281° |
| 2026-04-25 14:39 | 51.40763 | 2.30088 | 25405 ft | 405 kts | 281° |
| 2026-04-25 14:39 | 51.41290 | 2.25679 | 24814 ft | 401 kts | 281° |
| 2026-04-25 14:39 | 51.41815 | 2.21315 | 24242 ft | 397 kts | 281° |
| 2026-04-25 14:40 | 51.42341 | 2.16998 | 23652 ft | 393 kts | 281° |
| 2026-04-25 14:40 | 51.42868 | 2.12723 | 23045 ft | 387 kts | 281° |
| 2026-04-25 14:40 | 51.43383 | 2.08531 | 22531 ft | 379 kts | 281° |
| 2026-04-25 14:40 | 51.43883 | 2.04413 | 22022 ft | 374 kts | 281° |
| 2026-04-25 14:41 | 51.44378 | 2.00329 | 21541 ft | 372 kts | 281° |
| 2026-04-25 14:41 | 51.44864 | 1.96270 | 21067 ft | 370 kts | 281° |
| 2026-04-25 14:41 | 51.45340 | 1.92234 | 20612 ft | 368 kts | 281° |
| 2026-04-25 14:41 | 51.45811 | 1.88209 | 20157 ft | 366 kts | 281° |
| 2026-04-25 14:42 | 51.46275 | 1.84209 | 19710 ft | 364 kts | 280° |
| 2026-04-25 14:42 | 51.46428 | 1.82862 | 19567 ft | 364 kts | 281° |
| 2026-04-25 14:42 | 51.47191 | 1.76253 | 18847 ft | 361 kts | 281° |
| 2026-04-25 14:42 | 51.47644 | 1.72305 | 18402 ft | 359 kts | 281° |
| 2026-04-25 14:43 | 51.48095 | 1.68370 | 17940 ft | 357 kts | 281° |
| 2026-04-25 14:43 | 51.48448 | 1.64444 | 17509 ft | 355 kts | 274° |
| 2026-04-25 14:43 | 51.48373 | 1.60504 | 17066 ft | 353 kts | 263° |
| 2026-04-25 14:43 | 51.47861 | 1.56661 | 16626 ft | 352 kts | 253° |
| 2026-04-25 14:44 | 51.47029 | 1.52974 | 16179 ft | 350 kts | 251° |
| 2026-04-25 14:44 | 51.46186 | 1.49333 | 15725 ft | 347 kts | 251° |
| 2026-04-25 14:44 | 51.45350 | 1.45710 | 15269 ft | 345 kts | 251° |
| 2026-04-25 14:44 | 51.44505 | 1.42130 | 14807 ft | 342 kts | 247° |
| 2026-04-25 14:45 | 51.43794 | 1.39879 | 14509 ft | 342 kts | 240° |
| 2026-04-25 14:45 | 51.42405 | 1.36798 | 14079 ft | 343 kts | 229° |
| 2026-04-25 14:45 | 51.40914 | 1.34500 | 13865 ft | 359 kts | 220° |
| 2026-04-25 14:45 | 51.38901 | 1.32084 | 13576 ft | 363 kts | 218° |
| 2026-04-25 14:46 | 51.36864 | 1.29682 | 13315 ft | 363 kts | 218° |
| 2026-04-25 14:46 | 51.34832 | 1.27284 | 13052 ft | 363 kts | 218° |
| 2026-04-25 14:46 | 51.32804 | 1.24893 | 12792 ft | 362 kts | 218° |
| 2026-04-25 14:46 | 51.30785 | 1.22515 | 12525 ft | 360 kts | 218° |
| 2026-04-25 14:47 | 51.28786 | 1.20162 | 12278 ft | 359 kts | 218° |
| 2026-04-25 14:47 | 51.27444 | 1.18578 | 12104 ft | 358 kts | 218° |
| 2026-04-25 14:47 | 51.24768 | 1.15421 | 11767 ft | 357 kts | 218° |
| 2026-04-25 14:47 | 51.22768 | 1.13071 | 11517 ft | 356 kts | 218° |
| 2026-04-25 14:48 | 51.20775 | 1.10735 | 11265 ft | 355 kts | 217° |
| 2026-04-25 14:48 | 51.18785 | 1.08409 | 11018 ft | 355 kts | 217° |
| 2026-04-25 14:48 | 51.16799 | 1.06084 | 10764 ft | 354 kts | 217° |
| 2026-04-25 14:48 | 51.14818 | 1.03761 | 10541 ft | 353 kts | 217° |
| 2026-04-25 14:49 | 51.12843 | 1.01453 | 10300 ft | 352 kts | 217° |
| 2026-04-25 14:49 | 51.10892 | 0.99184 | 10098 ft | 340 kts | 217° |
| 2026-04-25 14:49 | 51.09028 | 0.97016 | 9966 ft | 324 kts | 217° |
| 2026-04-25 14:49 | 51.07262 | 0.94930 | 9829 ft | 308 kts | 221° |
| 2026-04-25 14:50 | 51.05804 | 0.92556 | 9690 ft | 294 kts | 233° |
| 2026-04-25 14:50 | 51.04735 | 0.89848 | 9570 ft | 287 kts | 245° |
| 2026-04-25 14:50 | 51.03897 | 0.86978 | 9448 ft | 286 kts | 246° |
| 2026-04-25 14:50 | 51.03285 | 0.83993 | 9321 ft | 284 kts | 258° |
| 2026-04-25 14:51 | 51.02834 | 0.80942 | 9188 ft | 284 kts | 257° |
| 2026-04-25 14:51 | 51.02377 | 0.77900 | 9071 ft | 283 kts | 257° |
| 2026-04-25 14:51 | 51.01916 | 0.74857 | 8936 ft | 283 kts | 257° |
| 2026-04-25 14:51 | 51.01463 | 0.71860 | 8817 ft | 283 kts | 258° |
| 2026-04-25 14:52 | 51.01008 | 0.68835 | 8694 ft | 282 kts | 257° |
| 2026-04-25 14:52 | 51.00555 | 0.65820 | 8381 ft | 279 kts | 258° |
| 2026-04-25 14:52 | 51.00108 | 0.62829 | 7950 ft | 278 kts | 257° |
| 2026-04-25 14:52 | 50.99805 | 0.60814 | 7675 ft | 277 kts | 258° |
| 2026-04-25 14:53 | 50.99523 | 0.56794 | 7268 ft | 273 kts | 270° |
| 2026-04-25 14:53 | 50.99521 | 0.53776 | 7264 ft | 274 kts | 271° |
| 2026-04-25 14:53 | 50.99526 | 0.50811 | 7265 ft | 275 kts | 271° |
| 2026-04-25 14:53 | 50.99533 | 0.47772 | 7264 ft | 275 kts | 271° |
| 2026-04-25 14:54 | 50.99542 | 0.44727 | 7267 ft | 276 kts | 271° |
| 2026-04-25 14:54 | 50.99553 | 0.41689 | 7273 ft | 275 kts | 271° |
| 2026-04-25 14:54 | 50.99565 | 0.38646 | 7262 ft | 276 kts | 271° |
| 2026-04-25 14:54 | 50.99578 | 0.35602 | 7260 ft | 276 kts | 271° |
| 2026-04-25 14:55 | 50.99591 | 0.32556 | 7268 ft | 276 kts | 271° |
| 2026-04-25 14:55 | 50.99601 | 0.29515 | 7265 ft | 275 kts | 271° |
| 2026-04-25 14:55 | 50.99610 | 0.26470 | 7258 ft | 275 kts | 271° |
| 2026-04-25 14:55 | 50.99619 | 0.23430 | 7264 ft | 276 kts | 271° |
| 2026-04-25 14:56 | 50.99629 | 0.20400 | 7257 ft | 276 kts | 271° |
| 2026-04-25 14:56 | 50.99640 | 0.17340 | 7246 ft | 276 kts | 271° |
| 2026-04-25 14:56 | 50.99648 | 0.14304 | 7248 ft | 276 kts | 271° |
| 2026-04-25 14:56 | 50.99658 | 0.11259 | 7242 ft | 276 kts | 271° |
| 2026-04-25 14:57 | 50.99668 | 0.08220 | 7239 ft | 275 kts | 271° |
| 2026-04-25 14:57 | 50.99678 | 0.05179 | 7234 ft | 275 kts | 271° |
| 2026-04-25 14:57 | 50.99686 | 0.02137 | 7220 ft | 275 kts | 271° |
| 2026-04-25 14:57 | 50.99695 | -0.00908 | 7203 ft | 276 kts | 271° |
| 2026-04-25 14:58 | 50.99708 | -0.03951 | 7194 ft | 276 kts | 271° |
| 2026-04-25 14:58 | 50.99722 | -0.06987 | 7196 ft | 276 kts | 271° |
| 2026-04-25 14:58 | 50.99737 | -0.10039 | 7198 ft | 276 kts | 271° |
| 2026-04-25 14:58 | 50.99752 | -0.13081 | 7189 ft | 276 kts | 271° |
| 2026-04-25 14:59 | 50.99767 | -0.16131 | 7191 ft | 276 kts | 271° |
| 2026-04-25 14:59 | 50.99780 | -0.19152 | 6844 ft | 273 kts | 271° |
| 2026-04-25 14:59 | 50.99792 | -0.22160 | 6413 ft | 272 kts | 271° |
| 2026-04-25 14:59 | 50.99803 | -0.25119 | 5984 ft | 271 kts | 271° |
| 2026-04-25 15:00 | 50.99811 | -0.28097 | 5566 ft | 268 kts | 271° |
| 2026-04-25 15:00 | 50.99822 | -0.31056 | 5166 ft | 267 kts | 271° |
| 2026-04-25 15:00 | 50.99834 | -0.33997 | 4764 ft | 266 kts | 271° |
| 2026-04-25 15:00 | 50.99848 | -0.36914 | 4352 ft | 264 kts | 271° |
| 2026-04-25 15:01 | 50.99865 | -0.39821 | 3948 ft | 263 kts | 271° |
| 2026-04-25 15:01 | 50.99888 | -0.42667 | 3561 ft | 262 kts | 271° |
| 2026-04-25 15:01 | 50.99914 | -0.45543 | 3160 ft | 260 kts | 271° |
| 2026-04-25 15:01 | 50.99943 | -0.48390 | 3030 ft | 259 kts | 271° |
| 2026-04-25 15:02 | 51.00215 | -0.51147 | 3028 ft | 247 kts | 294° |
| 2026-04-25 15:02 | 51.01132 | -0.53084 | 3028 ft | 231 kts | 324° |
| 2026-04-25 15:02 | 51.02587 | -0.54077 | 3032 ft | 229 kts | 347° |
| 2026-04-25 15:02 | 51.04150 | -0.54560 | 3021 ft | 229 kts | 351° |
| 2026-04-25 15:03 | 51.05722 | -0.54958 | 3020 ft | 229 kts | 355° |
| 2026-04-25 15:03 | 51.07269 | -0.54576 | 3017 ft | 226 kts | 27° |
| 2026-04-25 15:03 | 51.08440 | -0.53047 | 3027 ft | 215 kts | 48° |
| 2026-04-25 15:03 | 51.09395 | -0.51258 | 3017 ft | 211 kts | 51° |
| 2026-04-25 15:04 | 51.10295 | -0.49490 | 3018 ft | 196 kts | 53° |
| 2026-04-25 15:04 | 51.10824 | -0.47618 | 3011 ft | 178 kts | 78° |
| 2026-04-25 15:04 | 51.11077 | -0.45793 | 3028 ft | 160 kts | 77° |
| 2026-04-25 15:04 | 51.11319 | -0.44086 | 3013 ft | 157 kts | 77° |
| 2026-04-25 15:05 | 51.11557 | -0.42403 | 2898 ft | 155 kts | 77° |
| 2026-04-25 15:05 | 51.11791 | -0.40734 | 2723 ft | 154 kts | 77° |
| 2026-04-25 15:05 | 51.12024 | -0.39078 | 2527 ft | 153 kts | 78° |
| 2026-04-25 15:06 | 51.12486 | -0.35777 | 2123 ft | 152 kts | 77° |
| 2026-04-25 15:06 | 51.12711 | -0.34164 | 1907 ft | 152 kts | 77° |
| 2026-04-25 15:06 | 51.12942 | -0.32514 | 1715 ft | 152 kts | 77° |
| 2026-04-25 15:06 | 51.13170 | -0.30874 | 1510 ft | 151 kts | 78° |
| 2026-04-25 15:07 | 51.13395 | -0.29263 | 1311 ft | 151 kts | 78° |
| 2026-04-25 15:07 | 51.13617 | -0.27632 | 1105 ft | 150 kts | 78° |
| 2026-04-25 15:07 | 51.13845 | -0.26012 | 847 ft | 150 kts | 77° |
| 2026-04-25 15:07 | 51.14076 | -0.24396 | 630 ft | 149 kts | 77° |
| 2026-04-25 15:08 | 51.14299 | -0.22791 | 454 ft | 148 kts | 78° |
| 2026-04-25 15:08 | 51.14519 | -0.21181 | 308 ft | 148 kts | 77° |
| 2026-04-25 15:08 | 51.14739 | -0.19596 | 206 ft | 139 kts | 78° |
| 2026-04-25 15:08 | 51.14898 | -0.18436 | 202 ft | 80 kts | 77° |
| 2026-04-25 15:09 | 51.14966 | -0.18010 | 211 ft | 28 kts | 67° |
| 2026-04-25 15:09 | 51.15064 | -0.17785 | 208 ft | 18 kts | 46° |
| 2026-04-25 15:09 | 51.15184 | -0.17770 | 205 ft | 0 kts | 353° |
| 2026-04-25 15:10 | 51.15195 | -0.17772 | 205 ft | 6 kts | 353° |
| 2026-04-25 15:11 | 51.15261 | -0.17720 | 204 ft | 17 kts | 63° |
| 2026-04-25 15:11 | 51.15292 | -0.17509 | 210 ft | 18 kts | 79° |
| 2026-04-25 15:11 | 51.15346 | -0.17348 | 213 ft | 16 kts | 41° |
| 2026-04-25 15:12 | 51.15409 | -0.17101 | 208 ft | 9 kts | 73° |
| 2026-04-25 15:12 | 51.15449 | -0.17079 | 204 ft | 6 kts | 351° |
| 2026-04-25 15:12 | 51.15461 | -0.17083 | 204 ft | 1 kts | 349° |
| 2026-04-25 15:12 | 51.15462 | -0.17083 | 206 ft | 0 kts | 349° |
| 2026-04-25 15:13 | 51.15468 | -0.17085 | 215 ft | 1 kts | 348° |
| 2026-04-25 15:13 | 51.15469 | -0.17086 | 204 ft | 0 kts | 348° |